Iwo, Nigeria
Current Conditions -  °F | °C
As of 2:00 AM on Tuesday 27 Jan 2015 (Local Time) from DNMM Reporting Station
Few Clouds Few Clouds  
Wind Chill: 79°   Ceiling: Unl
Heat Index: 83°   Visibility: 6mi
Dew Point: 77°   Wind: 9mph
Humidity: 94%   Direction: 270°W
Pressure: 29.88"   Gusts: NA
Location:  7.63°N, 4.18°E
Report Text: DNMM 270100Z 27008KT 9999 FEW009 26/25 Q1012 NOSIG
Loading
Personal Weather Stations






























Interactive Weather Map New forecast layout! Learn more

10-Day Weather Forecast

Advertisements
Track Severe Weather on mobile